Time;durP1;ratioP1;P1;durP2;ratioP2;P2;SDS_P1;SDS_P2;PMS_P1;PMS_P2;Temp;Humidity;BMP_temperature;BMP_pressure;BME280_temperature;BME280_humidity;BME280_pressure;Samples;Min_cycle;Max_cycle;Signal;HPM_P1;HPM_P2
2022/03/19 00:01:20;;;;;;;28.70;13.90;;;;;;;-6.10;59.08;103787.39;107799;1244;73770;-65
2022/03/19 00:03:49;;;;;;;24.00;13.60;;;;;;;-6.13;59.88;103788.44;107860;1242;61905;-61
2022/03/19 00:06:18;;;;;;;30.40;13.50;;;;;;;-6.16;58.92;103790.02;107908;1244;59914;-63
2022/03/19 00:08:48;;;;;;;24.20;12.40;;;;;;;-6.15;60.97;103786.15;108049;1244;74082;-65
2022/03/19 00:11:17;;;;;;;36.30;15.30;;;;;;;-6.08;61.26;103789.99;107927;1244;70509;-65
2022/03/19 00:13:46;;;;;;;24.60;12.50;;;;;;;-5.96;61.54;103791.25;107944;1243;67342;-65
2022/03/19 00:16:15;;;;;;;21.40;11.30;;;;;;;-5.91;61.32;103795.52;107911;1242;70730;-63
2022/03/19 00:18:44;;;;;;;27.90;12.40;;;;;;;-5.94;59.83;103794.36;107883;1242;61488;-63
2022/03/19 00:21:13;;;;;;;28.50;12.60;;;;;;;-6.01;59.42;103798.14;107989;1244;60050;-61
2022/03/19 00:23:43;;;;;;;22.70;14.20;;;;;;;-6.01;60.08;103793.70;107858;1244;72303;-62
2022/03/19 00:26:13;;;;;;;22.90;11.50;;;;;;;-6.00;61.60;103794.11;107944;1244;70651;-62
2022/03/19 00:28:42;;;;;;;25.20;13.50;;;;;;;-5.96;62.05;103796.16;107886;1243;72239;-61
2022/03/19 00:31:11;;;;;;;19.20;8.50;;;;;;;-5.97;60.54;103796.77;107819;1243;71863;-61
2022/03/19 00:33:40;;;;;;;10.90;6.30;;;;;;;-6.07;59.37;103792.44;107670;1244;59571;-63
2022/03/19 00:36:09;;;;;;;19.60;7.80;;;;;;;-6.24;59.44;103792.35;107608;1244;59627;-64
2022/03/19 00:38:39;;;;;;;30.70;13.50;;;;;;;-6.43;59.65;103792.96;107707;1243;74718;-63
2022/03/19 00:41:08;;;;;;;24.20;11.90;;;;;;;-6.63;59.88;103793.89;107741;1243;71761;-65
2022/03/19 00:43:37;;;;;;;19.20;8.20;;;;;;;-6.79;60.07;103793.63;107764;1242;68374;-63
2022/03/19 00:46:07;;;;;;;26.40;12.60;;;;;;;-6.92;60.76;103793.48;107740;1244;74960;-63
2022/03/19 00:48:36;;;;;;;15.90;7.80;;;;;;;-7.03;60.94;103794.50;107597;1244;61028;-63
2022/03/19 00:51:06;;;;;;;25.60;11.70;;;;;;;-7.11;61.31;103798.17;107706;1244;61602;-64
2022/03/19 00:53:34;;;;;;;16.80;8.00;;;;;;;-7.14;61.88;103800.22;107619;1244;76076;-63
2022/03/19 00:56:04;;;;;;;9.60;7.30;;;;;;;-7.15;61.94;103796.75;107660;1243;73069;-63
2022/03/19 00:58:34;;;;;;;9.30;6.30;;;;;;;-7.21;61.79;103798.48;107770;1244;70822;-64
2022/03/19 01:01:02;;;;;;;10.00;5.40;;;;;;;-7.31;61.91;103805.28;107839;1243;72856;-64
2022/03/19 01:03:32;;;;;;;10.40;5.80;;;;;;;-7.38;62.45;103803.58;107701;1243;62783;-61
2022/03/19 01:06:00;;;;;;;14.50;8.30;;;;;;;-7.44;62.47;103806.47;107677;1244;61247;-64
2022/03/19 01:08:29;;;;;;;21.70;10.80;;;;;;;-7.50;62.18;103806.70;107799;1243;75904;-66
2022/03/19 01:10:58;;;;;;;16.00;8.30;;;;;;;-7.54;62.22;103806.30;107746;1244;72974;-63
2022/03/19 01:13:27;;;;;;;17.10;8.30;;;;;;;-7.58;62.38;103804.59;107850;1244;70536;-65
2022/03/19 01:15:57;;;;;;;20.90;10.70;;;;;;;-7.61;62.26;103806.80;107865;1243;73032;-64
2022/03/19 01:18:27;;;;;;;10.70;5.40;;;;;;;-7.63;62.01;103800.09;107785;1243;60210;-66
2022/03/19 01:20:57;;;;;;;13.50;4.70;;;;;;;-7.64;62.26;103798.02;107715;1244;60528;-70
2022/03/19 01:23:26;;;;;;;11.60;7.20;;;;;;;-7.65;62.53;103797.28;107620;1243;76288;-70
2022/03/19 01:25:55;;;;;;;15.50;7.50;;;;;;;-7.65;62.67;103794.70;107879;1243;71277;-66
2022/03/19 01:28:24;;;;;;;17.30;8.10;;;;;;;-7.67;62.77;103792.42;107938;1244;69052;-67
2022/03/19 01:30:53;;;;;;;28.20;12.10;;;;;;;-7.68;62.88;103794.60;107959;1243;71216;-68
2022/03/19 01:33:22;;;;;;;19.90;11.00;;;;;;;-7.69;62.77;103795.55;107923;1244;60575;-70
2022/03/19 01:35:51;;;;;;;30.90;13.50;;;;;;;-7.70;62.48;103794.32;107883;1244;60311;-70
2022/03/19 01:38:21;;;;;;;25.30;12.50;;;;;;;-7.66;64.32;103794.33;107887;1244;76138;-71
2022/03/19 01:40:50;;;;;;;24.50;14.10;;;;;;;-7.61;63.85;103790.56;107896;1243;72187;-70
2022/03/19 01:43:19;;;;;;;26.00;13.50;;;;;;;-7.42;65.79;103792.40;107905;1243;71508;-69
2022/03/19 01:45:48;;;;;;;19.00;12.50;;;;;;;-7.31;65.22;103784.65;107731;1243;74723;-69
2022/03/19 01:48:17;;;;;;;23.10;13.30;;;;;;;-7.23;65.51;103787.39;107847;1243;59585;-69
2022/03/19 01:50:46;;;;;;;24.20;13.70;;;;;;;-7.17;65.62;103788.35;107903;1243;62607;-69
2022/03/19 01:53:16;;;;;;;27.30;14.40;;;;;;;-7.14;65.52;103784.80;107822;1244;75810;-69
2022/03/19 01:55:45;;;;;;;21.30;12.80;;;;;;;-7.12;65.89;103783.72;107894;1242;73216;-69
2022/03/19 01:58:15;;;;;;;25.10;13.90;;;;;;;-7.11;64.93;103785.96;107928;1243;70492;-69
2022/03/19 02:00:45;;;;;;;26.10;14.70;;;;;;;-7.15;65.60;103783.02;107820;1243;71457;-68
2022/03/19 02:03:14;;;;;;;31.00;14.70;;;;;;;-7.17;65.10;103780.23;107776;1244;61749;-70
2022/03/19 02:05:46;;;;;;;25.30;12.40;;;;;;;-7.25;64.38;103778.33;110113;1243;60419;-70
2022/03/19 02:08:18;;;;;;;19.70;9.40;;;;;;;-7.33;62.90;103779.48;107657;1245;72020;-70
2022/03/19 02:10:47;;;;;;;15.70;8.00;;;;;;;-7.43;62.06;103785.38;107665;1243;69448;-70
2022/03/19 02:13:16;;;;;;;10.10;5.90;;;;;;;-7.56;62.99;103786.91;107553;1243;69000;-70
2022/03/19 02:15:45;;;;;;;9.30;4.70;;;;;;;-7.69;63.70;103787.05;107593;1244;74923;-71
2022/03/19 02:18:14;;;;;;;8.90;4.50;;;;;;;-7.81;64.14;103786.13;107759;1243;63260;-71
2022/03/19 02:20:43;;;;;;;19.20;10.10;;;;;;;-7.89;64.58;103792.29;107785;1243;58837;-71
2022/03/19 02:26:10;;;;;;;23.00;11.20;;;;;;;-8.04;63.99;103793.05;107760;1243;73300;-70
2022/03/19 02:28:39;;;;;;;25.00;12.60;;;;;;;-8.03;65.30;103800.90;107644;1244;70812;-70
2022/03/19 02:31:08;;;;;;;12.20;7.00;;;;;;;-8.02;64.34;103800.27;107794;1243;72333;-70
2022/03/19 02:33:37;;;;;;;10.30;4.40;;;;;;;-8.03;64.45;103804.40;107580;1243;60792;-71
2022/03/19 02:36:08;;;;;;;13.80;6.40;;;;;;;-8.09;64.57;103804.59;107543;1243;61096;-70
2022/03/19 02:38:37;;;;;;;3.90;3.20;;;;;;;-8.17;64.91;103800.45;107699;1243;73006;-70
2022/03/19 02:41:06;;;;;;;8.90;4.30;;;;;;;-8.26;65.61;103805.22;107816;1243;71083;-70
2022/03/19 02:43:35;;;;;;;13.30;8.10;;;;;;;-8.35;66.00;103804.91;107721;1244;68787;-70
2022/03/19 02:46:04;;;;;;;18.30;9.80;;;;;;;-8.43;65.48;103800.08;107640;1244;71396;-69
2022/03/19 02:48:33;;;;;;;28.40;13.30;;;;;;;-8.47;64.90;103802.40;107797;1242;63963;-69
2022/03/19 02:51:04;;;;;;;29.40;13.30;;;;;;;-8.47;65.92;103806.30;107703;1244;61553;-68
2022/03/19 02:53:34;;;;;;;14.90;7.40;;;;;;;-8.44;64.43;103811.23;107826;1243;72472;-71
2022/03/19 02:56:05;;;;;;;10.10;5.20;;;;;;;-8.43;65.66;103813.13;107528;1243;73002;-71
2022/03/19 02:58:34;;;;;;;10.60;5.10;;;;;;;-8.46;65.94;103816.13;107724;1243;70941;-70
2022/03/19 03:01:03;;;;;;;17.80;6.80;;;;;;;-8.51;66.02;103816.71;107634;1243;74504;-70
2022/03/19 03:03:32;;;;;;;23.80;9.80;;;;;;;-8.53;65.49;103821.67;107712;1243;60271;-70
2022/03/19 03:06:01;;;;;;;14.20;7.60;;;;;;;-8.53;65.76;103822.48;107700;1243;59710;-70
2022/03/19 03:08:30;;;;;;;12.90;7.10;;;;;;;-8.54;66.28;103822.77;107821;1243;72018;-74
2022/03/19 03:10:59;;;;;;;21.00;10.20;;;;;;;-8.57;66.87;103820.23;107756;1243;71140;-71
2022/03/19 03:13:28;;;;;;;41.60;13.40;;;;;;;-8.56;66.75;103822.02;107767;1243;68751;-70
2022/03/19 03:15:58;;;;;;;24.80;11.30;;;;;;;-8.51;67.04;103825.48;107738;1243;75492;-71
2022/03/19 03:18:27;;;;;;;16.80;9.50;;;;;;;-8.48;67.24;103824.82;107894;1243;62171;-70
2022/03/19 03:20:58;;;;;;;28.90;13.40;;;;;;;-8.44;67.09;103826.41;107799;1243;61631;-71
2022/03/19 03:23:27;;;;;;;21.60;10.60;;;;;;;-8.42;65.57;103831.58;107680;1244;75974;-71
2022/03/19 03:25:56;;;;;;;25.70;13.60;;;;;;;-8.38;67.94;103831.96;107846;1243;72555;-71
2022/03/19 03:28:25;;;;;;;31.60;15.40;;;;;;;-8.34;67.98;103829.63;107771;1243;69493;-68
2022/03/19 03:30:54;;;;;;;28.80;14.60;;;;;;;-8.24;67.84;103833.54;107640;1243;71950;-68
2022/03/19 03:33:23;;;;;;;29.10;13.90;;;;;;;-8.17;67.91;103830.73;107617;1243;60584;-69
2022/03/19 03:35:52;;;;;;;28.80;15.00;;;;;;;-8.12;67.56;103830.66;107684;1243;60649;-69
2022/03/19 03:38:21;;;;;;;27.10;14.30;;;;;;;-8.06;68.15;103831.15;107664;1243;73427;-73
2022/03/19 03:40:51;;;;;;;28.20;13.60;;;;;;;-8.05;67.60;103829.55;107438;1244;71374;-71
2022/03/19 03:43:20;;;;;;;25.60;13.50;;;;;;;-8.02;67.58;103832.72;107610;1243;69707;-70
2022/03/19 03:45:49;;;;;;;24.10;13.80;;;;;;;-8.01;67.30;103834.29;107619;1243;73595;-71
2022/03/19 03:48:18;;;;;;;30.00;14.90;;;;;;;-8.03;67.28;103834.87;107704;1243;61873;-72
2022/03/19 03:50:55;;;;;;;29.90;15.30;;;;;;;-8.07;68.02;103836.01;107634;1244;59676;-73
2022/03/19 03:53:26;;;;;;;27.80;14.30;;;;;;;-8.08;67.72;103840.34;107773;1244;71681;-69
2022/03/19 03:55:57;;;;;;;28.90;15.60;;;;;;;-8.12;68.18;103839.77;107944;1243;70687;-70
2022/03/19 03:58:26;;;;;;;27.60;15.00;;;;;;;-8.10;67.92;103837.35;107734;1242;71380;-69
2022/03/19 04:00:56;;;;;;;25.50;14.80;;;;;;;-8.07;67.83;103841.92;107470;1243;74904;-70
2022/03/19 04:03:26;;;;;;;31.50;15.20;;;;;;;-8.06;67.97;103841.27;107592;1244;59572;-71
2022/03/19 04:05:55;;;;;;;27.20;14.80;;;;;;;-8.08;68.00;103845.75;107576;1244;60549;-68
2022/03/19 04:08:24;;;;;;;28.90;14.10;;;;;;;-8.08;69.88;103847.77;107726;1243;73015;-68
2022/03/19 04:10:53;;;;;;;31.40;13.90;;;;;;;-8.11;68.23;103850.52;107504;1244;72397;-71
2022/03/19 04:13:22;;;;;;;40.80;19.80;;;;;;;-8.13;68.22;103852.23;107645;1243;69525;-69
2022/03/19 04:15:51;;;;;;;34.10;18.90;;;;;;;-8.13;68.74;103854.45;107619;1243;73391;-69
2022/03/19 04:18:20;;;;;;;37.50;18.30;;;;;;;-8.13;69.18;103855.30;107680;1244;61094;-69
2022/03/19 04:20:49;;;;;;;31.10;17.30;;;;;;;-8.11;69.53;103856.27;107403;1245;59658;-70
2022/03/19 04:23:18;;;;;;;34.80;16.50;;;;;;;-8.13;69.16;103858.34;107613;1243;72122;-70
2022/03/19 04:25:47;;;;;;;36.50;15.20;;;;;;;-8.15;69.10;103858.40;107562;1243;69913;-68
2022/03/19 04:28:16;;;;;;;30.30;15.50;;;;;;;-8.14;69.49;103861.83;107671;1243;68687;-70
2022/03/19 04:30:45;;;;;;;27.60;14.70;;;;;;;-8.12;68.83;103864.13;107697;1243;71450;-69
2022/03/19 04:33:20;;;;;;;26.00;15.60;;;;;;;-8.14;68.74;103863.70;107704;1242;63024;-69
2022/03/19 04:38:39;;;;;;;30.60;15.30;;;;;;;-8.13;68.22;103870.17;107631;1243;73859;-71
2022/03/19 04:41:08;;;;;;;26.70;15.10;;;;;;;-8.12;68.35;103868.55;107717;1244;71745;-70
2022/03/19 04:43:37;;;;;;;29.10;15.60;;;;;;;-8.11;67.87;103867.56;107780;1243;69677;-70
2022/03/19 04:46:07;;;;;;;34.80;16.70;;;;;;;-8.08;67.89;103874.70;107646;1243;74548;-69
2022/03/19 04:48:36;;;;;;;33.90;16.50;;;;;;;-8.10;67.92;103874.90;107886;1243;61716;-70
2022/03/19 04:51:05;;;;;;;39.10;17.60;;;;;;;-8.09;68.61;103877.20;107959;1243;58936;-71
2022/03/19 04:53:34;;;;;;;31.40;15.40;;;;;;;-8.03;68.26;103883.75;107664;1245;71026;-71
2022/03/19 04:56:06;;;;;;;32.80;16.30;;;;;;;-7.95;67.69;103881.31;107867;1243;70805;-71
2022/03/19 04:58:35;;;;;;;31.80;17.70;;;;;;;-7.87;67.72;103879.52;107829;1243;70972;-67
2022/03/19 05:01:04;;;;;;;36.10;16.50;;;;;;;-7.80;67.45;103878.95;107824;1244;72606;-68
2022/03/19 05:03:34;;;;;;;32.10;17.70;;;;;;;-7.72;68.43;103880.33;107632;1244;63633;-66
2022/03/19 05:06:03;;;;;;;32.80;17.20;;;;;;;-7.64;67.45;103881.63;107731;1244;58918;-70
2022/03/19 05:08:32;;;;;;;33.30;16.40;;;;;;;-7.58;67.31;103890.05;107757;1243;72511;-70
2022/03/19 05:11:14;;;;;;;31.90;16.90;;;;;;;-7.49;66.95;103889.52;107754;1244;70597;-69
2022/03/19 05:13:49;;;;;;;34.20;17.80;;;;;;;-7.40;66.73;103893.91;107631;1244;70023;-71
2022/03/19 05:16:18;;;;;;;32.60;16.60;;;;;;;-7.26;66.26;103896.67;107718;1243;74321;-69
2022/03/19 05:18:47;;;;;;;37.00;18.30;;;;;;;-7.13;65.59;103896.63;107713;1243;60174;-71
2022/03/19 05:21:17;;;;;;;32.30;17.30;;;;;;;-7.02;65.22;103898.25;107761;1243;60233;-71
2022/03/19 05:23:47;;;;;;;30.20;18.00;;;;;;;-6.95;64.85;103898.44;107700;1243;72558;-71
2022/03/19 05:26:20;;;;;;;39.40;18.20;;;;;;;-6.83;66.05;103901.55;107683;1243;72704;-70
2022/03/19 05:28:49;;;;;;;35.40;17.40;;;;;;;-6.73;65.07;103904.98;107712;1243;72056;-70
2022/03/19 05:31:33;;;;;;;36.30;17.00;;;;;;;-6.68;64.56;103909.96;107648;1243;74614;-71
2022/03/19 05:36:50;;;;;;;23.90;13.50;;;;;;;-6.50;64.09;103915.63;107598;1245;59709;-70
2022/03/19 05:39:19;;;;;;;30.20;16.00;;;;;;;-6.39;63.85;103917.46;107653;1243;72104;-71
2022/03/19 05:41:49;;;;;;;32.00;15.00;;;;;;;-6.30;63.98;103917.57;107323;1243;72179;-71
2022/03/19 05:44:17;;;;;;;32.80;16.80;;;;;;;-6.27;63.61;103917.59;107614;1243;70667;-71
2022/03/19 05:46:48;;;;;;;33.10;17.70;;;;;;;-6.17;63.21;103917.86;107616;1244;75428;-70
2022/03/19 05:49:17;;;;;;;28.70;11.90;;;;;;;-6.08;62.85;103917.94;107503;1244;60338;-65
2022/03/19 05:51:46;;;;;;;33.00;17.90;;;;;;;-6.01;62.79;103918.45;107468;1243;61941;-65
2022/03/19 05:54:16;;;;;;;21.30;11.60;;;;;;;-5.92;62.54;103919.88;107710;1242;75280;-65
2022/03/19 05:56:45;;;;;;;28.40;15.60;;;;;;;-5.81;62.30;103920.58;107801;1243;73103;-67
2022/03/19 05:59:14;;;;;;;25.90;13.50;;;;;;;-5.72;62.15;103924.90;107903;1243;68294;-67
2022/03/19 06:01:44;;;;;;;32.30;17.80;;;;;;;-5.68;61.86;103925.75;107807;1243;72320;-66
2022/03/19 06:04:15;;;;;;;30.00;16.10;;;;;;;-5.65;61.59;103929.10;107701;1243;59648;-66
2022/03/19 06:06:47;;;;;;;24.90;15.70;;;;;;;-5.65;61.53;103928.94;107566;1243;61625;-66
2022/03/19 06:09:16;;;;;;;25.50;11.00;;;;;;;-5.65;62.00;103932.68;107688;1243;76143;-70
2022/03/19 06:11:46;;;;;;;35.10;18.10;;;;;;;-5.62;62.15;103932.13;107606;1244;69300;-69
2022/03/19 06:14:15;;;;;;;34.80;17.90;;;;;;;-5.60;62.39;103930.19;107683;1243;70597;-67
2022/03/19 06:16:45;;;;;;;27.80;16.80;;;;;;;-5.54;62.61;103928.56;107637;1243;74278;-68
2022/03/19 06:19:15;;;;;;;23.00;12.60;;;;;;;-5.44;62.31;103925.15;107220;1243;669582;-68
2022/03/19 06:21:45;;;;;;;23.70;14.90;;;;;;;-5.30;61.99;103928.80;107460;1243;61079;-69
2022/03/19 06:24:18;;;;;;;26.50;15.40;;;;;;;-5.18;61.85;103931.90;107483;1243;73217;-67
2022/03/19 06:26:47;;;;;;;28.20;14.50;;;;;;;-5.01;61.13;103930.77;107533;1244;71502;-68
2022/03/19 06:29:16;;;;;;;24.40;15.00;;;;;;;-4.93;60.69;103928.73;107588;1243;70610;-68
2022/03/19 06:31:45;;;;;;;26.50;16.30;;;;;;;-4.85;60.78;103934.19;107684;1243;73774;-69
2022/03/19 06:34:14;;;;;;;30.20;19.30;;;;;;;-4.76;60.15;103931.84;107458;1243;61684;-70
2022/03/19 06:39:30;;;;;;;34.60;19.50;;;;;;;-4.57;60.32;103932.64;107597;1244;72573;-68
2022/03/19 06:41:59;;;;;;;29.10;16.40;;;;;;;-4.46;60.15;103934.14;107462;1244;72962;-66
2022/03/19 06:44:29;;;;;;;25.00;12.40;;;;;;;-4.28;59.95;103930.11;107538;1243;72154;-67
2022/03/19 06:46:57;;;;;;;18.70;9.60;;;;;;;-4.13;59.51;103928.81;107469;1243;74703;-70
2022/03/19 06:49:28;;;;;;;23.60;11.90;;;;;;;-4.06;59.10;103926.52;107239;1243;62722;-71
2022/03/19 06:51:57;;;;;;;20.30;11.40;;;;;;;-3.98;58.85;103925.68;107417;1244;60002;-69
2022/03/19 06:54:28;;;;;;;17.80;11.20;;;;;;;-3.82;58.68;103926.78;107457;1244;72919;-72
2022/03/19 06:56:57;;;;;;;19.80;8.30;;;;;;;-3.65;58.35;103930.52;107535;1244;72660;-72
2022/03/19 06:59:26;;;;;;;15.50;8.50;;;;;;;-3.52;57.68;103934.09;107516;1244;70269;-70
2022/03/19 07:01:55;;;;;;;15.20;8.60;;;;;;;-3.39;57.43;103932.34;107587;1244;73145;-72
2022/03/19 07:04:26;;;;;;;33.40;16.80;;;;;;;-3.27;57.24;103933.63;107675;1243;61695;-71
2022/03/19 07:06:55;;;;;;;32.30;14.90;;;;;;;-3.22;57.18;103926.80;107986;1243;60299;-71
2022/03/19 07:09:30;;;;;;;28.70;15.40;;;;;;;-2.96;56.92;103930.30;107652;1243;73847;-74
2022/03/19 07:11:59;;;;;;;26.10;14.70;;;;;;;-2.74;56.88;103933.96;108635;1243;70739;-70
2022/03/19 07:14:28;;;;;;;26.00;14.50;;;;;;;-2.49;55.56;103931.38;107925;1243;67744;-66
2022/03/19 07:16:57;;;;;;;27.50;13.10;;;;;;;-2.32;55.63;103929.24;107837;1243;72894;-70
2022/03/19 07:19:26;;;;;;;27.70;16.30;;;;;;;-2.09;54.90;103928.77;107928;1243;59768;-70
2022/03/19 07:21:56;;;;;;;30.50;16.30;;;;;;;-1.89;54.52;103926.66;109892;1242;61344;-68
2022/03/19 07:24:25;;;;;;;24.00;11.80;;;;;;;-1.68;54.91;103925.06;109927;1243;73405;-71
2022/03/19 07:26:54;;;;;;;29.00;13.40;;;;;;;-1.44;54.43;103923.89;108934;1243;72822;-71
2022/03/19 07:29:23;;;;;;;23.70;12.60;;;;;;;-1.19;54.32;103923.41;107459;1243;70944;-69
2022/03/19 07:31:52;;;;;;;12.00;8.80;;;;;;;-0.92;52.87;103926.00;109841;1243;73641;-69
2022/03/19 07:34:21;;;;;;;17.00;10.40;;;;;;;-0.73;51.46;103931.83;109846;1243;58556;-69
2022/03/19 07:36:50;;;;;;;19.50;9.80;;;;;;;-0.51;49.79;103928.63;107701;1243;58926;-69
2022/03/19 07:39:19;;;;;;;18.90;9.10;;;;;;;-0.32;50.19;103929.77;107553;1243;72629;-68
2022/03/19 07:41:49;;;;;;;14.90;9.00;;;;;;;-0.18;48.42;103929.77;107540;1242;70449;-70
2022/03/19 07:44:25;;;;;;;14.50;8.40;;;;;;;-0.09;48.14;103931.01;107616;1243;70153;-70
2022/03/19 07:46:55;;;;;;;12.40;8.20;;;;;;;-0.06;47.12;103928.15;107566;1243;71367;-70
2022/03/19 07:49:25;;;;;;;14.80;8.40;;;;;;;0.11;48.13;103929.23;107507;1243;60520;-70
2022/03/19 07:51:55;;;;;;;11.20;8.00;;;;;;;0.18;46.96;103929.90;107590;1243;61769;-68
2022/03/19 07:54:27;;;;;;;14.00;8.50;;;;;;;0.08;46.54;103932.58;107606;1244;75173;-68
2022/03/19 07:56:57;;;;;;;12.20;8.70;;;;;;;0.12;46.26;103930.80;107486;1243;72706;-68
2022/03/19 07:59:27;;;;;;;13.30;7.90;;;;;;;0.28;46.65;103928.23;107649;1243;71169;-67
2022/03/19 08:01:56;;;;;;;15.00;7.40;;;;;;;0.39;46.34;103931.05;107534;1244;72289;-69
2022/03/19 08:04:26;;;;;;;15.30;8.60;;;;;;;0.46;46.09;103924.34;107597;1243;60539;-69
2022/03/19 08:06:55;;;;;;;15.60;9.20;;;;;;;0.54;46.03;103925.20;107659;1243;61106;-71
2022/03/19 08:09:28;;;;;;;;;;;;;;;0.75;45.80;103920.65;107791;1243;74114;-71
2022/03/19 08:12:00;;;;;;;13.90;8.00;;;;;;;0.89;45.74;103920.23;107856;1244;70044;-71
2022/03/19 08:14:31;;;;;;;15.50;9.20;;;;;;;0.89;45.44;103916.80;107273;1243;68034;-70
2022/03/19 08:17:01;;;;;;;16.00;9.20;;;;;;;0.91;45.35;103909.46;107520;1243;74515;-68
2022/03/19 08:19:31;;;;;;;17.20;10.00;;;;;;;0.84;44.74;103911.55;107596;1243;60037;-67
2022/03/19 08:22:19;;;;;;;17.90;10.20;;;;;;;0.83;44.52;103912.91;107607;1243;59317;-68
2022/03/19 08:24:48;;;;;;;17.50;9.10;;;;;;;0.92;44.98;103913.93;107569;1243;72770;-70
2022/03/19 08:27:17;;;;;;;13.70;8.50;;;;;;;1.01;44.13;103913.59;107564;1243;69832;-69
2022/03/19 08:29:46;;;;;;;14.00;8.90;;;;;;;1.17;43.89;103908.20;107451;1242;68725;-69
2022/03/19 08:32:17;;;;;;;16.40;9.10;;;;;;;1.29;43.87;103904.98;109878;1243;73892;-70
2022/03/19 08:34:46;;;;;;;16.00;7.80;;;;;;;1.45;44.12;103907.14;110056;1242;58989;-71
2022/03/19 08:37:15;;;;;;;15.20;8.90;;;;;;;1.42;43.61;103904.52;110067;1243;60836;-70
2022/03/19 08:42:35;;;;;;;15.40;9.20;;;;;;;1.57;43.12;103896.85;109962;1243;71445;-69
2022/03/19 08:45:06;;;;;;;15.80;9.10;;;;;;;1.67;42.76;103896.16;110081;1243;70874;-69
2022/03/19 08:47:36;;;;;;;15.50;8.70;;;;;;;1.93;42.94;103896.04;109425;1242;74435;-70
2022/03/19 08:50:06;;;;;;;18.10;7.40;;;;;;;2.18;42.03;103898.11;107665;1243;60865;-71
2022/03/19 08:52:36;;;;;;;11.70;6.70;;;;;;;2.40;41.18;103893.05;108464;1243;61152;-70
2022/03/19 08:55:06;;;;;;;11.50;7.40;;;;;;;2.55;40.58;103884.46;107706;1243;75527;-71
2022/03/19 08:57:36;;;;;;;12.40;6.90;;;;;;;2.65;40.26;103891.81;107703;1243;70556;-71
2022/03/19 09:00:07;;;;;;;10.30;6.50;;;;;;;2.59;40.19;103886.92;107678;1243;68681;-70
2022/03/19 09:02:43;;;;;;;12.60;6.90;;;;;;;2.45;39.66;103883.31;107478;1244;73727;-70
2022/03/19 09:05:12;;;;;;;12.80;6.50;;;;;;;2.58;39.48;103876.23;107608;1243;60390;-72
2022/03/19 09:07:42;;;;;;;11.10;6.60;;;;;;;2.78;40.00;103875.59;107742;1243;62217;-70
2022/03/19 09:10:11;;;;;;;9.60;6.70;;;;;;;2.69;39.48;103874.64;107605;1243;76086;-71
2022/03/19 09:12:41;;;;;;;11.70;6.50;;;;;;;2.75;39.68;103873.50;107728;1244;71020;-72
2022/03/19 09:15:12;;;;;;;10.20;6.50;;;;;;;2.65;38.97;103872.36;107755;1243;67950;-71
2022/03/19 09:17:41;;;;;;;10.70;6.50;;;;;;;2.38;39.22;103866.55;107459;1243;74281;-72
2022/03/19 09:20:11;;;;;;;11.80;6.90;;;;;;;2.45;39.88;103868.51;107529;1244;59610;-71
2022/03/19 09:22:40;;;;;;;10.00;6.50;;;;;;;2.38;39.75;103867.05;107591;1243;59429;-71
2022/03/19 09:25:09;;;;;;;10.50;5.80;;;;;;;2.41;39.68;103866.07;107431;1244;72619;-72
2022/03/19 09:27:39;;;;;;;9.20;5.80;;;;;;;2.50;38.92;103861.70;107489;1243;70731;-72
2022/03/19 09:30:09;;;;;;;10.90;6.10;;;;;;;2.58;39.01;103864.71;107516;1243;68729;-71
2022/03/19 09:32:38;;;;;;;9.30;5.70;;;;;;;2.79;38.75;103863.39;107598;1243;72302;-72
2022/03/19 09:35:08;;;;;;;9.40;5.50;;;;;;;2.68;38.81;103853.63;107300;1246;59161;-72
2022/03/19 09:37:37;;;;;;;12.00;6.90;;;;;;;2.88;39.04;103851.77;107556;1243;61439;-71
2022/03/19 09:40:07;;;;;;;9.90;5.80;;;;;;;3.07;38.39;103851.59;107474;1243;72781;-72
2022/03/19 09:42:47;;;;;;;9.20;6.00;;;;;;;3.31;37.98;103854.91;107616;1243;72423;-72
2022/03/19 09:45:19;;;;;;;11.20;5.80;;;;;;;3.35;37.67;103856.67;107610;1243;70734;-72
2022/03/19 09:47:50;;;;;;;6.30;3.40;;;;;;;3.36;37.11;103862.36;107542;1243;75446;-71
2022/03/19 09:50:21;;;;;;;15.30;6.40;;;;;;;3.54;36.93;103855.77;107744;1243;61450;-70
2022/03/19 09:52:55;;;;;;;6.60;4.70;;;;;;;3.68;35.80;103853.45;107636;1243;61754;-71
2022/03/19 09:55:27;;;;;;;8.90;4.90;;;;;;;3.69;35.09;103847.95;107665;1243;73419;-71
2022/03/19 09:57:57;;;;;;;8.80;4.80;;;;;;;3.28;34.90;103842.48;107535;1243;72996;-71
2022/03/19 10:00:26;;;;;;;7.40;4.70;;;;;;;3.35;35.82;103843.05;107656;1243;71632;-72
2022/03/19 10:03:08;;;;;;;8.00;4.90;;;;;;;3.84;36.13;103838.55;107758;1243;72486;-71
2022/03/19 10:08:40;;;;;;;11.70;5.30;;;;;;;4.21;34.92;103834.42;107590;1243;61743;-71
2022/03/19 10:11:12;;;;;;;6.10;3.80;;;;;;;4.45;34.34;103832.61;107679;1243;74635;-71
2022/03/19 10:13:47;;;;;;;10.50;4.70;;;;;;;4.31;33.89;103831.87;107823;1243;72165;-71
2022/03/19 10:16:28;;;;;;;7.80;4.70;;;;;;;4.38;34.35;103825.68;107894;1244;71948;-71
2022/03/19 10:19:04;;;;;;;11.00;6.10;;;;;;;4.46;34.56;103822.25;107686;1244;73790;-69
2022/03/19 10:21:40;;;;;;;8.80;5.70;;;;;;;4.48;34.89;103815.36;107497;1244;60903;-71
2022/03/19 10:24:27;;;;;;;10.60;6.40;;;;;;;4.49;34.76;103812.42;107588;1244;60296;-72
2022/03/19 10:26:57;;;;;;;9.40;5.50;;;;;;;4.60;34.94;103816.59;107522;1244;74482;-72
2022/03/19 10:29:30;;;;;;;10.20;5.90;;;;;;;4.68;34.42;103820.93;107686;1244;70185;-69
2022/03/19 10:32:08;;;;;;;9.10;5.30;;;;;;;4.54;34.92;103806.22;107602;1244;70582;-72
2022/03/19 10:34:40;;;;;;;11.30;6.40;;;;;;;4.74;34.85;103806.77;107661;1244;73303;-70
2022/03/19 10:37:09;;;;;;;7.80;5.70;;;;;;;5.04;34.35;103805.92;107675;1244;58904;-71
2022/03/19 10:39:46;;;;;;;9.50;5.80;;;;;;;4.98;34.48;103810.95;107666;1244;59325;-71
2022/03/19 10:42:15;;;;;;;10.70;5.70;;;;;;;4.58;34.52;103811.91;107441;1246;72488;-71
2022/03/19 10:44:48;;;;;;;8.80;5.60;;;;;;;4.12;35.01;103803.16;107451;1246;69913;-71
2022/03/19 10:47:23;;;;;;;7.70;4.70;;;;;;;3.91;35.13;103797.38;107512;1246;68477;-72
2022/03/19 10:49:59;;;;;;;7.60;4.00;;;;;;;3.97;34.98;103799.48;107719;1246;74872;-75
2022/03/19 10:52:29;;;;;;;7.00;4.10;;;;;;;4.50;33.55;103798.79;107712;1245;61128;-71
2022/03/19 10:55:03;;;;;;;9.70;6.80;;;;;;;5.09;33.51;103790.55;107462;1244;62509;-71
2022/03/19 10:57:32;;;;;;;8.20;4.20;;;;;;;5.39;32.80;103784.30;107607;1244;73940;-72
2022/03/19 11:00:01;;;;;;;6.00;3.70;;;;;;;5.95;33.02;103781.90;107529;1244;68564;-70
2022/03/19 11:02:31;;;;;;;6.00;3.40;;;;;;;6.48;32.36;103775.41;107702;1244;69004;-71
2022/03/19 11:05:02;;;;;;;7.20;4.90;;;;;;;6.80;30.89;103780.02;107647;1244;73223;-71
2022/03/19 11:07:34;;;;;;;10.10;5.80;;;;;;;6.53;30.95;103775.52;107646;1244;59978;-72
2022/03/19 11:10:06;;;;;;;9.00;4.80;;;;;;;6.76;31.83;103770.19;107648;1244;60535;-71
2022/03/19 11:12:40;;;;;;;13.90;9.30;;;;;;;6.55;31.09;103773.98;107775;1244;73060;-72
2022/03/19 11:15:13;;;;;;;12.90;9.60;;;;;;;6.37;31.40;103767.34;107601;1243;72125;-71
2022/03/19 11:17:45;;;;;;;15.70;8.00;;;;;;;6.81;31.49;103765.47;107782;1243;70065;-71
2022/03/19 11:20:14;;;;;;;6.00;4.10;;;;;;;7.08;30.07;103757.27;107709;1244;74288;-71
2022/03/19 11:23:12;;;;;;;6.80;4.40;;;;;;;7.26;29.75;103760.73;107782;1243;60939;-72
2022/03/19 11:25:55;;;;;;;7.60;4.50;;;;;;;7.13;29.19;103753.76;107719;1244;60561;-72
2022/03/19 11:28:24;;;;;;;8.10;4.70;;;;;;;6.86;29.34;103745.85;107777;1243;72862;-71
2022/03/19 11:31:09;;;;;;;10.60;5.10;;;;;;;7.53;28.79;103736.86;107682;1243;70376;-70
2022/03/19 11:33:38;;;;;;;9.20;4.80;;;;;;;8.24;28.53;103741.68;107492;1246;69092;-71
2022/03/19 11:36:10;;;;;;;7.90;4.30;;;;;;;8.17;27.99;103739.16;108540;1243;75107;-73
2022/03/19 11:38:54;;;;;;;8.00;4.10;;;;;;;8.28;28.66;103738.83;107794;1243;60320;-73
2022/03/19 11:41:29;;;;;;;7.40;4.20;;;;;;;8.22;28.13;103739.44;107433;1244;59600;-72